sensor_id;sensor_type;location;lat;lon;timestamp;P1;durP1;ratioP1;P2;durP2;ratioP2
27847;SDS011;15212;48.830;8.730;2023-02-11T00:01:25;21.37;;;9.93;;
27847;SDS011;15212;48.830;8.730;2023-02-11T00:04:00;21.55;;;9.18;;
27847;SDS011;15212;48.830;8.730;2023-02-11T00:06:31;21.62;;;8.98;;
27847;SDS011;15212;48.830;8.730;2023-02-11T00:09:00;20.85;;;8.45;;
27847;SDS011;15212;48.830;8.730;2023-02-11T00:11:29;19.98;;;8.25;;
27847;SDS011;15212;48.830;8.730;2023-02-11T00:13:58;18.65;;;8.43;;
27847;SDS011;15212;48.830;8.730;2023-02-11T00:16:30;19.25;;;8.45;;
27847;SDS011;15212;48.830;8.730;2023-02-11T00:18:59;19.52;;;7.87;;
27847;SDS011;15212;48.830;8.730;2023-02-11T00:21:28;18.52;;;8.03;;
27847;SDS011;15212;48.830;8.730;2023-02-11T00:23:57;21.57;;;8.23;;
27847;SDS011;15212;48.830;8.730;2023-02-11T00:26:28;17.67;;;7.40;;
27847;SDS011;15212;48.830;8.730;2023-02-11T00:29:00;17.37;;;8.03;;
27847;SDS011;15212;48.830;8.730;2023-02-11T00:31:31;17.20;;;7.25;;
27847;SDS011;15212;48.830;8.730;2023-02-11T00:34:00;17.85;;;8.03;;
27847;SDS011;15212;48.830;8.730;2023-02-11T00:36:29;15.03;;;6.65;;
27847;SDS011;15212;48.830;8.730;2023-02-11T00:38:58;18.35;;;6.58;;
27847;SDS011;15212;48.830;8.730;2023-02-11T00:41:27;16.35;;;6.87;;
27847;SDS011;15212;48.830;8.730;2023-02-11T00:43:56;18.35;;;7.42;;
27847;SDS011;15212;48.830;8.730;2023-02-11T00:46:24;12.55;;;6.60;;
27847;SDS011;15212;48.830;8.730;2023-02-11T00:48:53;16.20;;;7.12;;
27847;SDS011;15212;48.830;8.730;2023-02-11T00:51:26;13.60;;;6.35;;
27847;SDS011;15212;48.830;8.730;2023-02-11T00:53:55;14.13;;;6.33;;
27847;SDS011;15212;48.830;8.730;2023-02-11T00:56:23;11.63;;;5.40;;
27847;SDS011;15212;48.830;8.730;2023-02-11T00:58:52;12.43;;;5.85;;
27847;SDS011;15212;48.830;8.730;2023-02-11T01:01:21;14.23;;;5.45;;
27847;SDS011;15212;48.830;8.730;2023-02-11T01:03:49;12.73;;;5.45;;
27847;SDS011;15212;48.830;8.730;2023-02-11T01:06:18;12.28;;;5.55;;
27847;SDS011;15212;48.830;8.730;2023-02-11T01:08:46;13.30;;;5.80;;
27847;SDS011;15212;48.830;8.730;2023-02-11T01:11:16;10.98;;;5.45;;
27847;SDS011;15212;48.830;8.730;2023-02-11T01:13:47;12.40;;;5.62;;
27847;SDS011;15212;48.830;8.730;2023-02-11T01:16:17;12.88;;;5.53;;
27847;SDS011;15212;48.830;8.730;2023-02-11T01:18:47;12.98;;;5.30;;
27847;SDS011;15212;48.830;8.730;2023-02-11T01:21:15;12.68;;;5.08;;
27847;SDS011;15212;48.830;8.730;2023-02-11T01:23:44;11.00;;;5.05;;
27847;SDS011;15212;48.830;8.730;2023-02-11T01:26:12;10.88;;;5.17;;
27847;SDS011;15212;48.830;8.730;2023-02-11T01:28:41;11.28;;;4.97;;
27847;SDS011;15212;48.830;8.730;2023-02-11T01:31:09;9.73;;;4.97;;
27847;SDS011;15212;48.830;8.730;2023-02-11T01:33:38;13.38;;;5.45;;
27847;SDS011;15212;48.830;8.730;2023-02-11T01:36:06;10.23;;;4.67;;
27847;SDS011;15212;48.830;8.730;2023-02-11T01:38:35;9.45;;;4.75;;
27847;SDS011;15212;48.830;8.730;2023-02-11T01:41:07;9.45;;;5.10;;
27847;SDS011;15212;48.830;8.730;2023-02-11T01:43:39;10.60;;;5.33;;
27847;SDS011;15212;48.830;8.730;2023-02-11T01:46:22;11.48;;;5.10;;
27847;SDS011;15212;48.830;8.730;2023-02-11T01:49:08;11.68;;;4.87;;
27847;SDS011;15212;48.830;8.730;2023-02-11T01:51:47;10.63;;;5.03;;
27847;SDS011;15212;48.830;8.730;2023-02-11T01:54:40;13.00;;;5.37;;
27847;SDS011;15212;48.830;8.730;2023-02-11T01:57:31;12.03;;;5.28;;
27847;SDS011;15212;48.830;8.730;2023-02-11T02:02:48;12.15;;;5.33;;
27847;SDS011;15212;48.830;8.730;2023-02-11T02:08:42;11.93;;;4.92;;
27847;SDS011;15212;48.830;8.730;2023-02-11T02:11:19;13.72;;;5.03;;
27847;SDS011;15212;48.830;8.730;2023-02-11T02:13:47;10.18;;;4.85;;
27847;SDS011;15212;48.830;8.730;2023-02-11T02:16:17;9.23;;;4.42;;
27847;SDS011;15212;48.830;8.730;2023-02-11T02:19:02;11.95;;;4.62;;
27847;SDS011;15212;48.830;8.730;2023-02-11T02:31:11;8.90;;;4.42;;
27847;SDS011;15212;48.830;8.730;2023-02-11T02:33:52;7.55;;;4.00;;
27847;SDS011;15212;48.830;8.730;2023-02-11T02:36:33;10.13;;;3.83;;
27847;SDS011;15212;48.830;8.730;2023-02-11T02:39:15;11.00;;;3.87;;
27847;SDS011;15212;48.830;8.730;2023-02-11T02:41:51;6.65;;;3.58;;
27847;SDS011;15212;48.830;8.730;2023-02-11T02:44:21;10.10;;;3.65;;
27847;SDS011;15212;48.830;8.730;2023-02-11T02:46:50;7.22;;;3.62;;
27847;SDS011;15212;48.830;8.730;2023-02-11T02:49:18;5.90;;;2.87;;
27847;SDS011;15212;48.830;8.730;2023-02-11T02:51:54;6.37;;;2.85;;
27847;SDS011;15212;48.830;8.730;2023-02-11T03:01:07;7.45;;;3.72;;
27847;SDS011;15212;48.830;8.730;2023-02-11T03:07:00;6.55;;;3.45;;
27847;SDS011;15212;48.830;8.730;2023-02-11T03:09:31;7.28;;;3.72;;
27847;SDS011;15212;48.830;8.730;2023-02-11T03:12:17;7.80;;;4.10;;
27847;SDS011;15212;48.830;8.730;2023-02-11T03:14:48;8.60;;;3.80;;
27847;SDS011;15212;48.830;8.730;2023-02-11T03:17:18;9.80;;;4.08;;
27847;SDS011;15212;48.830;8.730;2023-02-11T03:19:50;10.82;;;3.70;;
27847;SDS011;15212;48.830;8.730;2023-02-11T03:22:24;9.78;;;4.92;;
27847;SDS011;15212;48.830;8.730;2023-02-11T03:25:18;11.65;;;5.67;;
27847;SDS011;15212;48.830;8.730;2023-02-11T03:27:51;11.50;;;5.55;;
27847;SDS011;15212;48.830;8.730;2023-02-11T03:30:42;13.20;;;5.40;;
27847;SDS011;15212;48.830;8.730;2023-02-11T03:33:26;8.95;;;5.10;;
27847;SDS011;15212;48.830;8.730;2023-02-11T03:35:59;13.18;;;5.80;;
27847;SDS011;15212;48.830;8.730;2023-02-11T03:38:30;9.63;;;5.42;;
27847;SDS011;15212;48.830;8.730;2023-02-11T03:41:03;11.95;;;5.33;;
27847;SDS011;15212;48.830;8.730;2023-02-11T03:43:39;11.22;;;4.62;;
27847;SDS011;15212;48.830;8.730;2023-02-11T03:46:14;10.85;;;4.62;;
27847;SDS011;15212;48.830;8.730;2023-02-11T03:48:51;7.78;;;3.90;;
27847;SDS011;15212;48.830;8.730;2023-02-11T03:51:18;9.45;;;4.03;;
27847;SDS011;15212;48.830;8.730;2023-02-11T03:53:49;8.08;;;4.20;;
27847;SDS011;15212;48.830;8.730;2023-02-11T03:56:22;10.82;;;4.17;;
27847;SDS011;15212;48.830;8.730;2023-02-11T03:58:54;13.08;;;4.12;;
27847;SDS011;15212;48.830;8.730;2023-02-11T04:01:23;7.10;;;3.58;;
27847;SDS011;15212;48.830;8.730;2023-02-11T04:03:52;7.67;;;3.80;;
27847;SDS011;15212;48.830;8.730;2023-02-11T04:06:20;7.45;;;3.47;;
27847;SDS011;15212;48.830;8.730;2023-02-11T04:08:48;8.03;;;3.67;;
27847;SDS011;15212;48.830;8.730;2023-02-11T04:11:17;5.90;;;3.20;;
27847;SDS011;15212;48.830;8.730;2023-02-11T04:13:45;6.58;;;3.27;;
27847;SDS011;15212;48.830;8.730;2023-02-11T04:16:14;6.40;;;3.42;;
27847;SDS011;15212;48.830;8.730;2023-02-11T04:18:42;7.72;;;3.65;;
27847;SDS011;15212;48.830;8.730;2023-02-11T04:21:10;9.23;;;4.00;;
27847;SDS011;15212;48.830;8.730;2023-02-11T04:23:39;8.05;;;3.80;;
27847;SDS011;15212;48.830;8.730;2023-02-11T04:26:07;5.37;;;2.98;;
27847;SDS011;15212;48.830;8.730;2023-02-11T04:28:35;6.05;;;3.42;;
27847;SDS011;15212;48.830;8.730;2023-02-11T04:31:04;6.92;;;3.52;;
27847;SDS011;15212;48.830;8.730;2023-02-11T04:33:32;6.40;;;3.37;;
27847;SDS011;15212;48.830;8.730;2023-02-11T04:36:01;9.50;;;4.00;;
27847;SDS011;15212;48.830;8.730;2023-02-11T04:38:29;7.95;;;3.90;;
27847;SDS011;15212;48.830;8.730;2023-02-11T04:40:57;7.72;;;3.77;;
27847;SDS011;15212;48.830;8.730;2023-02-11T04:43:26;7.50;;;4.00;;
27847;SDS011;15212;48.830;8.730;2023-02-11T04:45:57;8.45;;;3.40;;
27847;SDS011;15212;48.830;8.730;2023-02-11T04:48:25;8.90;;;4.12;;
27847;SDS011;15212;48.830;8.730;2023-02-11T04:50:54;7.03;;;3.62;;
27847;SDS011;15212;48.830;8.730;2023-02-11T04:53:22;7.33;;;3.65;;
27847;SDS011;15212;48.830;8.730;2023-02-11T04:55:51;7.55;;;3.65;;
27847;SDS011;15212;48.830;8.730;2023-02-11T04:58:19;7.10;;;3.58;;
27847;SDS011;15212;48.830;8.730;2023-02-11T05:00:54;7.87;;;3.47;;
27847;SDS011;15212;48.830;8.730;2023-02-11T05:03:22;6.05;;;3.50;;
27847;SDS011;15212;48.830;8.730;2023-02-11T05:05:51;8.18;;;3.50;;
27847;SDS011;15212;48.830;8.730;2023-02-11T05:08:20;8.10;;;3.20;;
27847;SDS011;15212;48.830;8.730;2023-02-11T05:10:48;7.75;;;3.42;;
27847;SDS011;15212;48.830;8.730;2023-02-11T05:13:17;6.25;;;3.47;;
27847;SDS011;15212;48.830;8.730;2023-02-11T05:15:45;7.50;;;3.52;;
27847;SDS011;15212;48.830;8.730;2023-02-11T05:18:13;9.20;;;3.75;;
27847;SDS011;15212;48.830;8.730;2023-02-11T05:20:42;6.85;;;3.27;;
27847;SDS011;15212;48.830;8.730;2023-02-11T05:23:11;6.12;;;3.00;;
27847;SDS011;15212;48.830;8.730;2023-02-11T05:25:39;8.93;;;3.22;;
27847;SDS011;15212;48.830;8.730;2023-02-11T05:28:08;8.03;;;3.30;;
27847;SDS011;15212;48.830;8.730;2023-02-11T05:30:36;9.48;;;3.75;;
27847;SDS011;15212;48.830;8.730;2023-02-11T05:33:05;6.60;;;3.22;;
27847;SDS011;15212;48.830;8.730;2023-02-11T05:35:33;7.60;;;3.37;;
27847;SDS011;15212;48.830;8.730;2023-02-11T05:38:01;7.08;;;3.25;;
27847;SDS011;15212;48.830;8.730;2023-02-11T05:40:30;6.95;;;3.33;;
27847;SDS011;15212;48.830;8.730;2023-02-11T05:42:58;8.13;;;3.35;;
27847;SDS011;15212;48.830;8.730;2023-02-11T05:45:27;7.30;;;3.67;;
27847;SDS011;15212;48.830;8.730;2023-02-11T05:47:56;8.70;;;3.52;;
27847;SDS011;15212;48.830;8.730;2023-02-11T05:50:25;8.28;;;3.65;;
27847;SDS011;15212;48.830;8.730;2023-02-11T05:52:53;7.12;;;3.30;;
27847;SDS011;15212;48.830;8.730;2023-02-11T05:55:22;12.50;;;4.10;;
27847;SDS011;15212;48.830;8.730;2023-02-11T05:57:50;5.15;;;3.08;;
27847;SDS011;15212;48.830;8.730;2023-02-11T06:00:18;5.80;;;3.40;;
27847;SDS011;15212;48.830;8.730;2023-02-11T06:02:47;6.95;;;3.85;;
27847;SDS011;15212;48.830;8.730;2023-02-11T06:05:15;9.35;;;4.10;;
27847;SDS011;15212;48.830;8.730;2023-02-11T06:07:44;9.45;;;4.30;;
27847;SDS011;15212;48.830;8.730;2023-02-11T06:10:12;7.00;;;3.85;;
27847;SDS011;15212;48.830;8.730;2023-02-11T06:12:41;6.83;;;3.90;;
27847;SDS011;15212;48.830;8.730;2023-02-11T06:15:09;8.68;;;4.47;;
27847;SDS011;15212;48.830;8.730;2023-02-11T06:17:38;10.40;;;5.20;;
27847;SDS011;15212;48.830;8.730;2023-02-11T06:20:07;8.83;;;5.10;;
27847;SDS011;15212;48.830;8.730;2023-02-11T06:22:36;10.13;;;4.90;;
27847;SDS011;15212;48.830;8.730;2023-02-11T06:25:05;10.75;;;5.12;;
27847;SDS011;15212;48.830;8.730;2023-02-11T06:27:33;8.73;;;4.45;;
27847;SDS011;15212;48.830;8.730;2023-02-11T06:30:02;14.65;;;5.33;;
27847;SDS011;15212;48.830;8.730;2023-02-11T06:32:32;12.68;;;5.17;;
27847;SDS011;15212;48.830;8.730;2023-02-11T06:35:01;14.13;;;5.95;;
27847;SDS011;15212;48.830;8.730;2023-02-11T06:37:29;6.35;;;3.60;;
27847;SDS011;15212;48.830;8.730;2023-02-11T06:39:59;7.80;;;3.30;;
27847;SDS011;15212;48.830;8.730;2023-02-11T06:42:27;5.75;;;3.20;;
27847;SDS011;15212;48.830;8.730;2023-02-11T06:44:55;7.40;;;3.17;;
27847;SDS011;15212;48.830;8.730;2023-02-11T06:47:24;8.40;;;3.25;;
27847;SDS011;15212;48.830;8.730;2023-02-11T06:49:52;6.05;;;3.33;;
27847;SDS011;15212;48.830;8.730;2023-02-11T06:52:20;7.62;;;3.22;;
27847;SDS011;15212;48.830;8.730;2023-02-11T06:54:49;6.62;;;3.52;;
27847;SDS011;15212;48.830;8.730;2023-02-11T06:57:17;6.58;;;3.50;;
27847;SDS011;15212;48.830;8.730;2023-02-11T06:59:46;7.25;;;3.35;;
27847;SDS011;15212;48.830;8.730;2023-02-11T07:02:14;5.50;;;2.90;;
27847;SDS011;15212;48.830;8.730;2023-02-11T07:04:43;7.17;;;3.60;;
27847;SDS011;15212;48.830;8.730;2023-02-11T07:07:11;9.83;;;3.65;;
27847;SDS011;15212;48.830;8.730;2023-02-11T07:09:39;6.47;;;3.67;;
27847;SDS011;15212;48.830;8.730;2023-02-11T07:12:08;8.30;;;4.28;;
27847;SDS011;15212;48.830;8.730;2023-02-11T07:14:37;7.42;;;4.05;;
27847;SDS011;15212;48.830;8.730;2023-02-11T07:17:06;9.78;;;4.37;;
27847;SDS011;15212;48.830;8.730;2023-02-11T07:19:34;9.73;;;4.53;;
27847;SDS011;15212;48.830;8.730;2023-02-11T07:22:02;8.23;;;3.22;;
27847;SDS011;15212;48.830;8.730;2023-02-11T07:24:31;7.12;;;3.55;;
27847;SDS011;15212;48.830;8.730;2023-02-11T07:26:59;9.63;;;3.72;;
27847;SDS011;15212;48.830;8.730;2023-02-11T07:29:27;8.78;;;4.25;;
27847;SDS011;15212;48.830;8.730;2023-02-11T07:31:56;7.60;;;3.70;;
27847;SDS011;15212;48.830;8.730;2023-02-11T07:34:24;8.73;;;4.33;;
27847;SDS011;15212;48.830;8.730;2023-02-11T07:36:53;11.08;;;4.10;;
27847;SDS011;15212;48.830;8.730;2023-02-11T07:39:21;9.50;;;4.08;;
27847;SDS011;15212;48.830;8.730;2023-02-11T07:41:52;7.33;;;4.03;;
27847;SDS011;15212;48.830;8.730;2023-02-11T07:44:21;10.53;;;4.28;;
27847;SDS011;15212;48.830;8.730;2023-02-11T07:46:50;7.60;;;4.03;;
27847;SDS011;15212;48.830;8.730;2023-02-11T07:49:18;7.17;;;3.25;;
27847;SDS011;15212;48.830;8.730;2023-02-11T07:51:47;6.53;;;3.42;;
27847;SDS011;15212;48.830;8.730;2023-02-11T07:54:16;8.98;;;3.62;;
27847;SDS011;15212;48.830;8.730;2023-02-11T07:56:44;6.78;;;3.70;;
27847;SDS011;15212;48.830;8.730;2023-02-11T07:59:13;5.45;;;2.90;;
27847;SDS011;15212;48.830;8.730;2023-02-11T08:01:41;7.22;;;3.50;;
27847;SDS011;15212;48.830;8.730;2023-02-11T08:04:10;6.53;;;3.08;;
27847;SDS011;15212;48.830;8.730;2023-02-11T08:06:39;7.58;;;3.27;;
27847;SDS011;15212;48.830;8.730;2023-02-11T08:09:10;5.03;;;3.02;;
27847;SDS011;15212;48.830;8.730;2023-02-11T08:11:41;10.15;;;3.15;;
27847;SDS011;15212;48.830;8.730;2023-02-11T08:14:12;5.80;;;3.08;;
27847;SDS011;15212;48.830;8.730;2023-02-11T08:16:41;7.12;;;3.37;;
27847;SDS011;15212;48.830;8.730;2023-02-11T08:19:11;8.40;;;3.62;;
27847;SDS011;15212;48.830;8.730;2023-02-11T08:21:41;7.05;;;3.75;;
27847;SDS011;15212;48.830;8.730;2023-02-11T08:24:10;5.50;;;2.80;;
27847;SDS011;15212;48.830;8.730;2023-02-11T08:26:39;10.65;;;4.97;;
27847;SDS011;15212;48.830;8.730;2023-02-11T08:29:09;22.87;;;8.58;;
27847;SDS011;15212;48.830;8.730;2023-02-11T08:31:41;36.53;;;13.75;;
27847;SDS011;15212;48.830;8.730;2023-02-11T08:34:12;27.25;;;9.58;;
27847;SDS011;15212;48.830;8.730;2023-02-11T08:36:43;31.25;;;10.78;;
27847;SDS011;15212;48.830;8.730;2023-02-11T08:39:14;20.85;;;7.75;;
27847;SDS011;15212;48.830;8.730;2023-02-11T08:41:50;9.00;;;3.47;;
27847;SDS011;15212;48.830;8.730;2023-02-11T08:44:21;16.77;;;7.33;;
27847;SDS011;15212;48.830;8.730;2023-02-11T08:46:50;8.25;;;3.90;;
27847;SDS011;15212;48.830;8.730;2023-02-11T08:49:19;27.67;;;8.53;;
27847;SDS011;15212;48.830;8.730;2023-02-11T08:51:48;26.60;;;9.28;;
27847;SDS011;15212;48.830;8.730;2023-02-11T08:54:16;10.30;;;4.37;;
27847;SDS011;15212;48.830;8.730;2023-02-11T08:56:45;7.20;;;2.87;;
27847;SDS011;15212;48.830;8.730;2023-02-11T08:59:16;13.62;;;5.28;;
27847;SDS011;15212;48.830;8.730;2023-02-11T09:01:44;3.50;;;2.42;;
27847;SDS011;15212;48.830;8.730;2023-02-11T09:04:13;4.58;;;2.47;;
27847;SDS011;15212;48.830;8.730;2023-02-11T09:06:41;5.53;;;2.60;;
27847;SDS011;15212;48.830;8.730;2023-02-11T09:09:11;7.58;;;3.55;;
27847;SDS011;15212;48.830;8.730;2023-02-11T09:11:41;26.45;;;11.63;;
27847;SDS011;15212;48.830;8.730;2023-02-11T09:14:16;11.05;;;4.97;;
27847;SDS011;15212;48.830;8.730;2023-02-11T09:19:16;6.42;;;2.92;;
27847;SDS011;15212;48.830;8.730;2023-02-11T09:21:45;5.83;;;2.92;;
27847;SDS011;15212;48.830;8.730;2023-02-11T09:24:14;4.60;;;2.62;;
27847;SDS011;15212;48.830;8.730;2023-02-11T09:26:43;7.22;;;2.83;;
27847;SDS011;15212;48.830;8.730;2023-02-11T09:29:11;5.95;;;2.70;;
27847;SDS011;15212;48.830;8.730;2023-02-11T09:31:40;6.80;;;3.20;;
27847;SDS011;15212;48.830;8.730;2023-02-11T09:34:08;6.05;;;2.85;;
27847;SDS011;15212;48.830;8.730;2023-02-11T09:36:38;6.75;;;3.22;;
27847;SDS011;15212;48.830;8.730;2023-02-11T09:39:11;4.40;;;2.30;;
27847;SDS011;15212;48.830;8.730;2023-02-11T09:44:34;5.42;;;2.55;;
27847;SDS011;15212;48.830;8.730;2023-02-11T09:47:05;4.35;;;2.20;;
27847;SDS011;15212;48.830;8.730;2023-02-11T09:49:58;6.53;;;2.83;;
27847;SDS011;15212;48.830;8.730;2023-02-11T09:55:33;10.63;;;3.72;;
27847;SDS011;15212;48.830;8.730;2023-02-11T09:58:02;10.13;;;3.98;;
27847;SDS011;15212;48.830;8.730;2023-02-11T10:04:06;13.68;;;5.53;;
27847;SDS011;15212;48.830;8.730;2023-02-11T10:06:55;9.25;;;4.00;;
27847;SDS011;15212;48.830;8.730;2023-02-11T10:18:21;12.75;;;5.05;;
27847;SDS011;15212;48.830;8.730;2023-02-11T10:21:23;10.25;;;5.17;;
27847;SDS011;15212;48.830;8.730;2023-02-11T10:23:59;11.60;;;5.08;;
27847;SDS011;15212;48.830;8.730;2023-02-11T10:26:31;10.60;;;4.97;;
27847;SDS011;15212;48.830;8.730;2023-02-11T10:29:05;12.23;;;5.33;;
27847;SDS011;15212;48.830;8.730;2023-02-11T10:31:41;12.90;;;5.37;;
27847;SDS011;15212;48.830;8.730;2023-02-11T10:34:11;14.18;;;5.78;;
27847;SDS011;15212;48.830;8.730;2023-02-11T10:36:42;16.12;;;5.97;;
27847;SDS011;15212;48.830;8.730;2023-02-11T10:39:15;14.07;;;5.62;;
27847;SDS011;15212;48.830;8.730;2023-02-11T10:41:49;17.05;;;6.10;;
27847;SDS011;15212;48.830;8.730;2023-02-11T10:47:13;10.88;;;5.15;;
27847;SDS011;15212;48.830;8.730;2023-02-11T10:52:13;12.65;;;5.28;;
27847;SDS011;15212;48.830;8.730;2023-02-11T10:54:56;11.35;;;5.62;;
27847;SDS011;15212;48.830;8.730;2023-02-11T11:00:35;15.48;;;7.33;;
27847;SDS011;15212;48.830;8.730;2023-02-11T11:06:07;12.55;;;6.05;;
27847;SDS011;15212;48.830;8.730;2023-02-11T11:11:18;11.97;;;4.97;;
27847;SDS011;15212;48.830;8.730;2023-02-11T11:21:43;15.98;;;7.33;;
27847;SDS011;15212;48.830;8.730;2023-02-11T11:24:25;17.67;;;7.67;;
27847;SDS011;15212;48.830;8.730;2023-02-11T11:27:01;17.20;;;6.78;;
27847;SDS011;15212;48.830;8.730;2023-02-11T11:29:38;15.10;;;7.22;;
27847;SDS011;15212;48.830;8.730;2023-02-11T11:35:03;17.60;;;7.20;;
27847;SDS011;15212;48.830;8.730;2023-02-11T11:37:35;16.90;;;7.03;;
27847;SDS011;15212;48.830;8.730;2023-02-11T11:40:09;19.77;;;7.78;;
27847;SDS011;15212;48.830;8.730;2023-02-11T11:42:40;18.42;;;7.62;;
27847;SDS011;15212;48.830;8.730;2023-02-11T11:50:43;17.17;;;8.50;;
27847;SDS011;15212;48.830;8.730;2023-02-11T11:56:16;19.90;;;8.95;;
27847;SDS011;15212;48.830;8.730;2023-02-11T11:59:13;19.37;;;8.68;;
27847;SDS011;15212;48.830;8.730;2023-02-11T12:01:48;20.27;;;9.20;;
27847;SDS011;15212;48.830;8.730;2023-02-11T12:04:41;20.43;;;9.33;;
27847;SDS011;15212;48.830;8.730;2023-02-11T12:10:36;19.00;;;8.95;;
27847;SDS011;15212;48.830;8.730;2023-02-11T12:16:32;25.88;;;9.78;;
27847;SDS011;15212;48.830;8.730;2023-02-11T12:19:28;20.72;;;9.23;;
27847;SDS011;15212;48.830;8.730;2023-02-11T12:27:43;21.50;;;9.38;;
27847;SDS011;15212;48.830;8.730;2023-02-11T12:30:58;26.37;;;10.10;;
27847;SDS011;15212;48.830;8.730;2023-02-11T12:39:31;20.65;;;9.30;;
27847;SDS011;15212;48.830;8.730;2023-02-11T12:45:17;25.72;;;9.53;;
27847;SDS011;15212;48.830;8.730;2023-02-11T12:57:14;23.02;;;10.40;;
27847;SDS011;15212;48.830;8.730;2023-02-11T13:05:28;27.58;;;11.45;;
27847;SDS011;15212;48.830;8.730;2023-02-11T13:11:06;25.80;;;10.65;;
27847;SDS011;15212;48.830;8.730;2023-02-11T13:13:45;26.40;;;11.22;;
27847;SDS011;15212;48.830;8.730;2023-02-11T13:16:19;25.75;;;11.73;;
27847;SDS011;15212;48.830;8.730;2023-02-11T13:19:02;22.52;;;11.18;;
27847;SDS011;15212;48.830;8.730;2023-02-11T13:24:49;29.40;;;11.78;;
27847;SDS011;15212;48.830;8.730;2023-02-11T13:27:30;29.23;;;12.13;;
27847;SDS011;15212;48.830;8.730;2023-02-11T13:35:32;33.53;;;12.45;;
27847;SDS011;15212;48.830;8.730;2023-02-11T13:38:20;25.62;;;12.18;;
27847;SDS011;15212;48.830;8.730;2023-02-11T13:41:00;30.70;;;12.50;;
27847;SDS011;15212;48.830;8.730;2023-02-11T13:43:59;28.17;;;11.83;;
27847;SDS011;15212;48.830;8.730;2023-02-11T13:49:33;30.17;;;11.78;;
27847;SDS011;15212;48.830;8.730;2023-02-11T13:52:22;24.47;;;11.25;;
27847;SDS011;15212;48.830;8.730;2023-02-11T13:55:06;27.00;;;11.05;;
27847;SDS011;15212;48.830;8.730;2023-02-11T13:57:41;26.48;;;11.05;;
27847;SDS011;15212;48.830;8.730;2023-02-11T14:06:12;25.95;;;10.85;;
27847;SDS011;15212;48.830;8.730;2023-02-11T14:09:07;21.23;;;10.32;;
27847;SDS011;15212;48.830;8.730;2023-02-11T14:11:44;29.35;;;11.08;;
27847;SDS011;15212;48.830;8.730;2023-02-11T14:14:26;24.60;;;10.63;;
27847;SDS011;15212;48.830;8.730;2023-02-11T14:19:38;21.33;;;10.40;;
27847;SDS011;15212;48.830;8.730;2023-02-11T14:22:12;23.50;;;10.80;;
27847;SDS011;15212;48.830;8.730;2023-02-11T14:24:48;26.65;;;10.90;;
27847;SDS011;15212;48.830;8.730;2023-02-11T14:27:29;25.35;;;11.18;;
27847;SDS011;15212;48.830;8.730;2023-02-11T14:30:14;27.40;;;11.05;;
27847;SDS011;15212;48.830;8.730;2023-02-11T14:33:01;21.27;;;10.88;;
27847;SDS011;15212;48.830;8.730;2023-02-11T14:35:42;30.35;;;12.60;;
27847;SDS011;15212;48.830;8.730;2023-02-11T14:38:47;26.40;;;10.82;;
27847;SDS011;15212;48.830;8.730;2023-02-11T14:41:48;24.32;;;11.25;;
27847;SDS011;15212;48.830;8.730;2023-02-11T14:44:26;25.30;;;11.25;;
27847;SDS011;15212;48.830;8.730;2023-02-11T14:49:25;24.43;;;10.78;;
27847;SDS011;15212;48.830;8.730;2023-02-11T14:54:27;22.35;;;10.70;;
27847;SDS011;15212;48.830;8.730;2023-02-11T14:57:07;24.98;;;11.65;;
27847;SDS011;15212;48.830;8.730;2023-02-11T14:59:39;26.20;;;11.93;;
27847;SDS011;15212;48.830;8.730;2023-02-11T15:02:28;23.12;;;10.93;;
27847;SDS011;15212;48.830;8.730;2023-02-11T15:07:57;23.62;;;11.20;;
27847;SDS011;15212;48.830;8.730;2023-02-11T15:10:31;27.27;;;12.40;;
27847;SDS011;15212;48.830;8.730;2023-02-11T15:13:02;28.32;;;12.05;;
27847;SDS011;15212;48.830;8.730;2023-02-11T15:15:31;27.60;;;12.18;;
27847;SDS011;15212;48.830;8.730;2023-02-11T15:18:02;26.20;;;12.47;;
27847;SDS011;15212;48.830;8.730;2023-02-11T15:20:33;24.90;;;12.03;;
27847;SDS011;15212;48.830;8.730;2023-02-11T15:23:03;29.32;;;11.97;;
27847;SDS011;15212;48.830;8.730;2023-02-11T15:25:41;24.37;;;12.13;;
27847;SDS011;15212;48.830;8.730;2023-02-11T15:28:14;27.82;;;12.50;;
27847;SDS011;15212;48.830;8.730;2023-02-11T15:30:45;22.13;;;9.80;;
27847;SDS011;15212;48.830;8.730;2023-02-11T15:33:20;27.25;;;12.45;;
27847;SDS011;15212;48.830;8.730;2023-02-11T15:35:50;26.93;;;11.95;;
27847;SDS011;15212;48.830;8.730;2023-02-11T15:38:18;26.55;;;13.32;;
27847;SDS011;15212;48.830;8.730;2023-02-11T15:40:55;27.70;;;14.05;;
27847;SDS011;15212;48.830;8.730;2023-02-11T15:46:20;35.08;;;13.83;;
27847;SDS011;15212;48.830;8.730;2023-02-11T15:48:50;29.95;;;13.93;;
27847;SDS011;15212;48.830;8.730;2023-02-11T15:51:21;30.12;;;14.05;;
27847;SDS011;15212;48.830;8.730;2023-02-11T15:53:58;31.00;;;14.45;;
27847;SDS011;15212;48.830;8.730;2023-02-11T15:56:37;36.77;;;15.38;;
27847;SDS011;15212;48.830;8.730;2023-02-11T15:59:18;41.37;;;15.55;;
27847;SDS011;15212;48.830;8.730;2023-02-11T16:01:46;40.48;;;17.00;;
27847;SDS011;15212;48.830;8.730;2023-02-11T16:04:19;37.03;;;15.80;;
27847;SDS011;15212;48.830;8.730;2023-02-11T16:06:53;45.88;;;18.65;;
27847;SDS011;15212;48.830;8.730;2023-02-11T16:12:16;32.42;;;15.08;;
27847;SDS011;15212;48.830;8.730;2023-02-11T16:14:45;30.30;;;14.40;;
27847;SDS011;15212;48.830;8.730;2023-02-11T16:17:31;35.83;;;15.68;;
27847;SDS011;15212;48.830;8.730;2023-02-11T16:19:55;38.83;;;16.37;;
27847;SDS011;15212;48.830;8.730;2023-02-11T16:22:27;42.23;;;17.25;;
27847;SDS011;15212;48.830;8.730;2023-02-11T16:24:58;32.50;;;15.93;;
27847;SDS011;15212;48.830;8.730;2023-02-11T16:27:28;36.50;;;16.23;;
27847;SDS011;15212;48.830;8.730;2023-02-11T16:32:59;37.75;;;16.57;;
27847;SDS011;15212;48.830;8.730;2023-02-11T16:35:27;35.33;;;17.42;;
27847;SDS011;15212;48.830;8.730;2023-02-11T16:37:56;39.70;;;17.15;;
27847;SDS011;15212;48.830;8.730;2023-02-11T16:40:25;35.40;;;17.60;;
27847;SDS011;15212;48.830;8.730;2023-02-11T16:42:53;36.98;;;17.82;;
27847;SDS011;15212;48.830;8.730;2023-02-11T16:45:21;38.95;;;18.17;;
27847;SDS011;15212;48.830;8.730;2023-02-11T16:47:51;36.53;;;17.37;;
27847;SDS011;15212;48.830;8.730;2023-02-11T16:50:21;39.38;;;17.50;;
27847;SDS011;15212;48.830;8.730;2023-02-11T16:52:51;38.95;;;18.27;;
27847;SDS011;15212;48.830;8.730;2023-02-11T16:55:20;41.15;;;18.32;;
27847;SDS011;15212;48.830;8.730;2023-02-11T16:57:48;46.33;;;19.32;;
27847;SDS011;15212;48.830;8.730;2023-02-11T17:00:17;46.00;;;20.40;;
27847;SDS011;15212;48.830;8.730;2023-02-11T17:02:46;41.02;;;17.55;;
27847;SDS011;15212;48.830;8.730;2023-02-11T17:05:15;43.78;;;20.17;;
27847;SDS011;15212;48.830;8.730;2023-02-11T17:07:48;53.25;;;24.23;;
27847;SDS011;15212;48.830;8.730;2023-02-11T17:10:18;45.33;;;20.75;;
27847;SDS011;15212;48.830;8.730;2023-02-11T17:12:49;41.60;;;20.45;;
27847;SDS011;15212;48.830;8.730;2023-02-11T17:15:18;48.80;;;19.73;;
27847;SDS011;15212;48.830;8.730;2023-02-11T17:17:46;42.65;;;19.85;;
27847;SDS011;15212;48.830;8.730;2023-02-11T17:20:15;40.28;;;18.57;;
27847;SDS011;15212;48.830;8.730;2023-02-11T17:22:43;41.33;;;17.87;;
27847;SDS011;15212;48.830;8.730;2023-02-11T17:25:12;40.15;;;18.48;;
27847;SDS011;15212;48.830;8.730;2023-02-11T17:27:40;46.13;;;18.92;;
27847;SDS011;15212;48.830;8.730;2023-02-11T17:30:09;48.15;;;19.95;;
27847;SDS011;15212;48.830;8.730;2023-02-11T17:32:39;40.00;;;20.50;;
27847;SDS011;15212;48.830;8.730;2023-02-11T17:35:08;44.95;;;20.85;;
27847;SDS011;15212;48.830;8.730;2023-02-11T17:37:37;42.48;;;20.45;;
27847;SDS011;15212;48.830;8.730;2023-02-11T17:40:06;43.38;;;19.50;;
27847;SDS011;15212;48.830;8.730;2023-02-11T17:42:35;41.55;;;19.45;;